Главная страница
METAR-TAF:

METAR-TAF

Аэропорты :

Penn Yan Airport

Penn Yan, Нью-Йорк, США

широта: 42-38-35N, долгота: 077-02-58W, высота над уровнем моря: 275 м

Текущие метеонаблюдения

Эта сводка был подготовлена 1 час и 7 минут назад, в 21:53 UTC
Ветер 14 Узел от южный с порывами до 23 Узел
Температура 4°C
Влажность 81%
Давление 1008 hPa
Видимость: 16.1 км
Сплошная облачность на высоте 6000 фута

METAR: KPEO 232153Z AUTO 19014G23KT 10SM OVC060 04/01 A2978 RMK AO2 PK WND 20028/2054 RAE18 SLP093 P0000 T00440011

Время: 18:00 (23:00 UTC)


TAF: отсутствует

Метеонаблюдения и прогнозы для более 4000 аэропортов (сводки METAR и TAF).

Имеющиеся станции представлены на карте желтыми и красными точками.

Чтобы увидеть название станции, наведите на нее мышь.

Затем щелкните, чтобы увидеть метеонаблюдения и метеопрогнозы.

Управление картой: чтобы увеличить масштаб, щелкните зеленые кнопки с черным крестиком; чтобы уменьшить масштаб, щелкните зеленую кнопку с тире; для просмотра соседних карт щелкайте зеленые стрелки.


METAR-TAF: